Terminal Aerodrome Forecast
Issued by NWS Flagstaff, AZ

Home | Current Version | Previous Version | Text Only | Print | Product List | Glossary On
Versions: 1 2 3 4 5 6 7 8 9 10 11 12 13 14 15
588
FTUS45 KFGZ 161120
TAFFLG
TAF
KFLG 161120Z 1612/1712 VRB03KT P6SM BKN120 OVC250
     FM161900 22010G20KT P6SM BKN120 OVC250
     FM170100 VRB03KT P6SM FEW120 OVC250=

USA.gov is the U.S. government's official web portal to all federal, state and local government web resources and services.